Time;durP1;ratioP1;P1;durP2;ratioP2;P2;SDS_P1;SDS_P2;PMS_P1;PMS_P2;Temp;Humidity;BMP_temperature;BMP_pressure;BME280_temperature;BME280_humidity;BME280_pressure;Samples;Min_cycle;Max_cycle;Signal;HPM_P1;HPM_P2
2021/03/09 00:03:38;;;;;;;0.80;0.80;;;;;;;-0.43;70.73;97034.66;299395;183;63009;-55
2021/03/09 00:08:39;;;;;;;0.70;0.70;;;;;;;-0.56;70.85;97034.78;299395;196;63005;-55
2021/03/09 00:13:40;;;;;;;0.77;0.77;;;;;;;-0.56;70.77;97032.09;299395;216;63009;-55
2021/03/09 00:18:41;;;;;;;0.70;0.70;;;;;;;-0.52;70.79;97033.31;299395;227;63004;-56
2021/03/09 00:23:42;;;;;;;0.80;0.80;;;;;;;-0.50;70.65;97031.25;299395;227;63009;-54
2021/03/09 00:28:43;;;;;;;0.80;0.80;;;;;;;-0.54;70.81;97024.72;299395;224;63005;-54
2021/03/09 00:33:44;;;;;;;0.80;0.80;;;;;;;-0.52;70.84;97022.66;299395;247;63009;-55
2021/03/09 00:38:45;;;;;;;0.80;0.80;;;;;;;-0.60;70.99;97020.25;299395;206;63005;-55
2021/03/09 00:43:46;;;;;;;0.80;0.80;;;;;;;-0.77;71.40;97017.34;299395;310;63009;-54
2021/03/09 00:48:47;;;;;;;0.80;0.80;;;;;;;-0.75;71.83;97013.44;299395;229;63016;-55
2021/03/09 00:53:47;;;;;;;0.70;0.70;;;;;;;-0.86;72.22;97022.13;299395;247;63009;-55
2021/03/09 00:58:48;;;;;;;0.80;0.80;;;;;;;-0.85;72.00;97018.44;299395;210;63005;-54
2021/03/09 01:03:49;;;;;;;0.70;0.70;;;;;;;-0.80;72.15;97015.09;299395;383;63009;-55
2021/03/09 01:08:51;;;;;;;0.80;0.80;;;;;;;-0.78;71.99;97011.19;299395;221;63009;-54
2021/03/09 01:13:51;;;;;;;0.80;0.80;;;;;;;-0.73;71.81;97014.03;299395;216;63009;-54
2021/03/09 01:18:52;;;;;;;0.80;0.80;;;;;;;-0.73;71.81;97007.88;299395;220;63004;-54
2021/03/09 01:23:53;;;;;;;0.80;0.80;;;;;;;-0.68;71.57;97003.50;299395;223;63009;-56
2021/03/09 01:28:54;;;;;;;0.75;0.75;;;;;;;-0.69;71.70;97001.06;299395;214;63005;-56
2021/03/09 01:33:55;;;;;;;0.80;0.80;;;;;;;-0.78;72.03;96999.72;299396;218;63008;-55
2021/03/09 01:38:56;;;;;;;0.80;0.80;;;;;;;-0.84;72.33;96993.41;299396;234;63004;-53
2021/03/09 01:43:58;;;;;;;0.80;0.80;;;;;;;-0.83;72.63;96984.38;299396;202;63009;-54
2021/03/09 01:49:00;;;;;;;0.80;0.80;;;;;;;-0.82;72.41;96980.69;299396;214;63004;-54
2021/03/09 01:54:01;;;;;;;0.80;0.80;;;;;;;-0.83;72.58;96970.25;299396;198;63009;-54
2021/03/09 01:59:02;;;;;;;0.80;0.80;;;;;;;-0.90;72.65;96962.31;299396;231;63005;-55
2021/03/09 02:04:05;;;;;;;0.80;0.80;;;;;;;-0.92;73.05;96959.06;299396;204;63008;-54
2021/03/09 02:09:07;;;;;;;0.80;0.80;;;;;;;-0.97;73.23;96950.91;299396;228;63004;-54
2021/03/09 02:14:32;;;;;;;0.80;0.80;;;;;;;-1.01;73.17;96949.69;299396;326;63021;-53
2021/03/09 02:20:10;;;;;;;0.80;0.80;;;;;;;-1.09;73.66;96947.34;299419;214;63005;-56
2021/03/09 02:25:50;;;;;;;1.02;1.02;;;;;;;-1.06;73.75;96942.41;299397;214;63019;-57
2021/03/09 02:30:54;;;;;;;0.80;0.80;;;;;;;-1.09;73.73;96944.69;299396;278;63009;-54
2021/03/09 02:36:11;;;;;;;0.80;0.80;;;;;;;-1.11;73.83;96936.09;299440;211;63005;-55
2021/03/09 02:41:15;;;;;;;0.80;0.80;;;;;;;-1.09;73.67;96932.19;299396;224;63008;-55
2021/03/09 02:46:17;;;;;;;0.80;0.80;;;;;;;-1.09;73.84;96931.38;299396;218;63004;-54
2021/03/09 02:51:24;;;;;;;0.80;0.80;;;;;;;-1.16;73.83;96930.59;299396;269;63009;-54
2021/03/09 02:56:25;;;;;;;0.80;0.80;;;;;;;-1.24;74.24;96939.66;299396;221;63004;-55
2021/03/09 03:01:28;;;;;;;0.80;0.80;;;;;;;-1.23;74.09;96929.81;299396;395;63018;-54
2021/03/09 03:06:32;;;;;;;0.90;0.90;;;;;;;-1.23;74.39;96920.00;299396;220;63005;-54
2021/03/09 03:11:34;;;;;;;0.70;0.70;;;;;;;-1.21;74.52;96917.94;299418;197;63008;-54
2021/03/09 03:16:37;;;;;;;0.80;0.80;;;;;;;-1.17;74.55;96923.63;299397;394;63004;-54
2021/03/09 03:21:43;;;;;;;0.80;0.80;;;;;;;-1.21;74.38;96911.78;299439;225;63009;-53
2021/03/09 03:26:46;;;;;;;0.80;0.80;;;;;;;-1.25;74.94;96921.25;299395;506;63005;-54
2021/03/09 03:31:48;;;;;;;0.80;0.80;;;;;;;-1.28;75.17;96922.50;299395;564;63009;-54
2021/03/09 03:36:50;;;;;;;0.80;0.80;;;;;;;-1.27;74.56;96913.47;299395;205;63005;-53
2021/03/09 03:41:52;;;;;;;0.80;0.80;;;;;;;-1.32;75.32;96909.81;299395;204;63009;-54
2021/03/09 03:46:53;;;;;;;0.80;0.80;;;;;;;-1.32;75.20;96915.16;299395;332;63004;-54
2021/03/09 03:52:06;;;;;;;0.80;0.80;;;;;;;-1.50;75.86;96918.59;299395;219;63009;-54
2021/03/09 03:57:22;;;;;;;0.80;0.80;;;;;;;-1.47;75.41;96916.31;299394;258;64009;-55
2021/03/09 04:02:25;;;;;;;0.80;0.80;;;;;;;-1.46;75.43;96915.28;299395;284;63009;-54
2021/03/09 04:07:27;;;;;;;0.80;0.80;;;;;;;-1.43;75.61;96903.38;299395;429;63005;-54
2021/03/09 04:12:30;;;;;;;0.80;0.80;;;;;;;-1.63;76.53;96898.19;299395;243;63009;-55
2021/03/09 04:17:33;;;;;;;0.80;0.80;;;;;;;-1.57;76.09;96901.84;299395;203;63004;-55
2021/03/09 04:22:37;;;;;;;0.80;0.80;;;;;;;-1.55;75.96;96900.59;299395;329;63009;-55
2021/03/09 04:27:38;;;;;;;0.80;0.80;;;;;;;-1.54;76.13;96891.59;299395;205;63005;-53
2021/03/09 04:32:40;;;;;;;0.80;0.80;;;;;;;-1.54;76.30;96888.09;299395;202;63008;-53
2021/03/09 04:37:41;;;;;;;0.80;0.80;;;;;;;-1.51;75.84;96890.34;299395;228;63004;-54
2021/03/09 04:42:43;;;;;;;0.75;0.75;;;;;;;-1.56;76.33;96893.66;299395;460;63009;-55
2021/03/09 04:47:45;;;;;;;0.80;0.80;;;;;;;-1.56;76.24;96898.97;299395;202;63010;-54
2021/03/09 04:52:48;;;;;;;0.80;0.80;;;;;;;-1.54;76.49;96906.72;299395;202;63009;-53
2021/03/09 04:57:49;;;;;;;0.80;0.80;;;;;;;-1.47;76.02;96900.34;299395;423;63005;-54
2021/03/09 05:02:52;;;;;;;0.80;0.80;;;;;;;-1.53;76.33;96892.41;299395;681;63008;-54
2021/03/09 05:07:53;;;;;;;0.80;0.80;;;;;;;-1.63;76.61;96898.19;299395;216;63009;-54
2021/03/09 05:12:55;;;;;;;0.80;0.80;;;;;;;-1.67;76.60;96902.31;299395;356;63009;-54
2021/03/09 05:17:56;;;;;;;1.23;1.23;;;;;;;-1.69;76.95;96904.38;299395;290;63010;-54
2021/03/09 05:22:57;;;;;;;0.80;0.80;;;;;;;-1.77;77.48;96907.31;299395;743;63009;-56
2021/03/09 05:27:58;;;;;;;0.80;0.80;;;;;;;-1.81;77.38;96919.41;299395;203;63005;-54
2021/03/09 05:32:59;;;;;;;0.80;0.80;;;;;;;-1.80;77.43;96918.38;299395;228;63008;-54
2021/03/09 05:38:00;;;;;;;0.80;0.80;;;;;;;-1.72;77.37;96916.25;299395;196;63004;-55
2021/03/09 05:43:01;;;;;;;0.80;0.80;;;;;;;-1.76;77.95;96903.62;299395;199;63009;-54
2021/03/09 05:48:04;;;;;;;0.80;0.80;;;;;;;-1.85;77.99;96912.88;299395;197;63004;-54
2021/03/09 05:53:06;;;;;;;0.80;0.80;;;;;;;-1.80;77.69;96905.06;299395;588;63009;-54
2021/03/09 05:58:08;;;;;;;0.80;0.80;;;;;;;-1.67;77.48;96920.94;299395;203;63005;-54
2021/03/09 06:03:09;;;;;;;0.90;0.90;;;;;;;-1.66;77.51;96925.22;299395;197;63008;-56
2021/03/09 06:08:09;;;;;;;0.70;0.70;;;;;;;-1.61;77.24;96917.41;299395;360;63004;-55
2021/03/09 06:13:34;;;;;;;0.80;0.80;;;;;;;-1.56;77.63;96919.44;299395;371;63009;-54
2021/03/09 06:18:35;;;;;;;0.90;0.90;;;;;;;-1.55;77.99;96916.56;299395;228;63011;-56
2021/03/09 06:23:37;;;;;;;0.73;0.73;;;;;;;-1.48;78.07;96927.97;299395;214;63009;-54
2021/03/09 06:28:38;;;;;;;0.80;0.80;;;;;;;-1.48;77.79;96932.50;299395;202;63005;-53
2021/03/09 06:33:39;;;;;;;0.80;0.80;;;;;;;-1.37;76.83;96924.59;299395;209;63009;-54
2021/03/09 06:38:40;;;;;;;0.80;0.80;;;;;;;-1.34;77.16;96920.69;299395;198;63004;-54
2021/03/09 06:44:00;;;;;;;0.82;0.82;;;;;;;-1.32;77.03;96931.94;299395;233;63009;-55
2021/03/09 06:49:02;;;;;;;0.70;0.70;;;;;;;-1.18;77.06;96922.00;299395;212;63005;-57
2021/03/09 06:54:08;;;;;;;0.80;0.80;;;;;;;-1.05;76.74;96924.56;299395;429;63009;-55
2021/03/09 06:59:36;;;;;;;0.80;0.80;;;;;;;-0.92;76.22;96929.75;299395;433;63005;-55
2021/03/09 07:04:48;;;;;;;0.80;0.80;;;;;;;-0.75;75.20;96936.16;299395;224;63009;-54
2021/03/09 07:09:57;;;;;;;0.80;0.80;;;;;;;-0.69;74.78;96931.78;299395;225;63004;-54
2021/03/09 07:14:59;;;;;;;0.80;0.80;;;;;;;-0.61;75.22;96944.00;299395;257;63009;-54
2021/03/09 07:20:06;;;;;;;0.80;0.80;;;;;;;-0.57;75.15;96951.34;299395;212;63005;-55
2021/03/09 07:25:16;;;;;;;0.80;0.80;;;;;;;-0.35;74.42;96954.41;299395;278;63008;-56
2021/03/09 07:30:23;;;;;;;0.80;0.80;;;;;;;-0.25;73.97;96944.00;299395;210;63004;-57
2021/03/09 07:35:30;;;;;;;0.80;0.80;;;;;;;-0.13;74.09;96950.25;299395;204;63009;-57
2021/03/09 07:40:34;;;;;;;0.70;0.70;;;;;;;0.07;73.61;96949.16;299395;212;63005;-57
2021/03/09 07:45:42;;;;;;;0.80;0.80;;;;;;;0.24;73.47;96952.84;299417;208;63009;-57
2021/03/09 07:50:46;;;;;;;0.70;0.70;;;;;;;0.44;72.67;96947.22;299395;366;63006;-54
2021/03/09 07:56:13;;;;;;;0.80;0.80;;;;;;;0.55;72.34;96955.28;299439;211;63009;-58
2021/03/09 08:01:14;;;;;;;0.80;0.80;;;;;;;0.70;73.43;96951.34;299395;196;63004;-56
2021/03/09 08:06:17;;;;;;;0.70;0.70;;;;;;;0.81;72.37;96953.25;299395;200;63009;-56
2021/03/09 08:11:37;;;;;;;0.70;0.70;;;;;;;0.92;72.04;96957.81;299395;216;63005;-58
2021/03/09 08:16:44;;;;;;;0.80;0.80;;;;;;;1.05;71.99;96957.56;299395;265;63021;-56
2021/03/09 08:21:59;;;;;;;0.80;0.80;;;;;;;1.21;71.27;96948.88;299395;202;63004;-53
2021/03/09 08:27:00;;;;;;;;;;;;;;;1.42;70.58;96955.50;299996;982;6005;-58
2021/03/09 08:32:34;;;;;;;0.77;0.77;;;;;;;1.70;69.36;96960.16;299400;397;63008;-57
2021/03/09 08:37:35;;;;;;;0.80;0.80;;;;;;;1.94;68.29;96959.03;299395;196;63009;-56
2021/03/09 08:43:17;;;;;;;0.70;0.70;;;;;;;1.98;68.48;96964.75;299395;218;63005;-57
2021/03/09 08:48:38;;;;;;;0.70;0.70;;;;;;;2.27;67.67;96949.50;299395;226;63009;-58
2021/03/09 08:53:39;;;;;;;0.70;0.70;;;;;;;2.33;66.94;96945.88;299395;277;63004;-53
2021/03/09 08:58:43;;;;;;;0.70;0.70;;;;;;;2.43;66.29;96938.03;299395;230;63009;-57
2021/03/09 09:03:44;;;;;;;0.77;0.77;;;;;;;2.66;65.23;96934.44;299395;206;63005;-53
2021/03/09 09:08:45;;;;;;;0.80;0.80;;;;;;;2.74;66.82;96941.28;299395;239;63008;-58
2021/03/09 09:13:46;;;;;;;0.80;0.80;;;;;;;3.05;63.02;96927.31;299395;279;63000;-57
2021/03/09 09:18:47;;;;;;;0.70;0.70;;;;;;;3.01;62.75;96927.00;299395;214;63009;-57
2021/03/09 09:23:49;;;;;;;0.75;0.75;;;;;;;3.04;62.21;96928.38;299395;223;63004;-57
2021/03/09 09:29:03;;;;;;;0.77;0.77;;;;;;;3.01;62.45;96926.19;299395;280;63009;-53
2021/03/09 09:34:06;;;;;;;0.80;0.80;;;;;;;3.24;61.88;96923.31;299377;202;125020;-57
2021/03/09 09:39:13;;;;;;;0.70;0.70;;;;;;;3.46;59.16;96917.22;299395;202;63008;-57
2021/03/09 09:44:15;;;;;;;0.70;0.70;;;;;;;3.60;59.42;96916.59;299394;211;64009;-58
2021/03/09 09:49:21;;;;;;;0.70;0.70;;;;;;;3.64;60.08;96922.28;299395;230;63009;-52
2021/03/09 09:54:22;;;;;;;0.70;0.70;;;;;;;3.70;58.28;96913.22;299395;225;63005;-53
2021/03/09 09:59:29;;;;;;;0.70;0.70;;;;;;;3.98;59.04;96915.72;299395;205;63009;-53
2021/03/09 10:04:34;;;;;;;0.70;0.70;;;;;;;4.18;58.17;96919.72;299395;269;63005;-53
2021/03/09 10:09:37;;;;;;;0.70;0.70;;;;;;;4.14;60.10;96918.62;299417;244;63020;-54
2021/03/09 10:14:58;;;;;;;0.70;0.70;;;;;;;4.32;58.51;96911.03;299395;224;63004;-57
2021/03/09 10:20:02;;;;;;;0.70;0.70;;;;;;;4.61;57.52;96908.88;299395;224;63009;-58
2021/03/09 10:25:08;;;;;;;0.70;0.70;;;;;;;4.69;57.65;96916.50;299417;226;63005;-53
2021/03/09 10:30:12;;;;;;;0.70;0.70;;;;;;;4.71;57.18;96909.00;299395;202;63009;-53
2021/03/09 10:35:16;;;;;;;0.70;0.70;;;;;;;4.71;57.79;96909.00;299417;241;63004;-53
2021/03/09 10:40:18;;;;;;;0.70;0.70;;;;;;;4.87;55.86;96898.34;299395;202;63009;-58
2021/03/09 10:45:29;;;;;;;0.70;0.70;;;;;;;5.19;54.01;96893.00;299395;208;63004;-51
2021/03/09 10:50:40;;;;;;;0.70;0.70;;;;;;;4.99;54.38;96899.00;299395;202;63009;-57
2021/03/09 10:55:41;;;;;;;0.70;0.70;;;;;;;5.21;54.26;96897.00;299395;332;63005;-56
2021/03/09 11:00:43;;;;;;;0.70;0.70;;;;;;;5.27;54.80;96893.28;299395;211;63008;-57
2021/03/09 11:05:56;;;;;;;0.73;0.73;;;;;;;5.31;54.62;96894.41;299395;249;63004;-51
2021/03/09 11:10:57;;;;;;;0.70;0.70;;;;;;;5.42;54.18;96897.16;299395;293;63009;-58
2021/03/09 11:16:08;;;;;;;0.70;0.70;;;;;;;5.45;50.98;96885.88;299395;211;63004;-53
2021/03/09 11:21:10;;;;;;;0.70;0.70;;;;;;;5.16;51.83;96888.94;299395;218;63009;-52
2021/03/09 11:26:13;;;;;;;0.70;0.70;;;;;;;5.08;51.66;96886.72;299395;228;63005;-57
2021/03/09 11:31:19;;;;;;;0.70;0.70;;;;;;;5.19;51.97;96888.41;299395;281;63009;-58
2021/03/09 11:36:24;;;;;;;0.70;0.70;;;;;;;5.30;50.19;96868.56;299395;202;63004;-53
2021/03/09 11:41:30;;;;;;;0.60;0.60;;;;;;;5.44;50.04;96874.31;299395;268;63009;-58
2021/03/09 11:46:31;;;;;;;0.70;0.70;;;;;;;5.26;49.90;96870.16;299395;228;63005;-57
2021/03/09 11:51:32;;;;;;;0.70;0.70;;;;;;;5.44;50.33;96874.31;299395;232;63018;-53
2021/03/09 11:56:33;;;;;;;0.70;0.70;;;;;;;5.66;50.12;96860.69;299395;248;63005;-58
2021/03/09 12:01:35;;;;;;;0.70;0.70;;;;;;;5.88;47.77;96841.69;299395;360;63009;-57
2021/03/09 12:06:41;;;;;;;0.70;0.70;;;;;;;5.93;47.58;96850.59;299395;278;63004;-58
2021/03/09 12:11:43;;;;;;;0.70;0.70;;;;;;;5.98;48.48;96844.41;299395;279;63009;-52
2021/03/09 12:16:48;;;;;;;0.70;0.70;;;;;;;5.54;48.72;96842.06;299395;288;63005;-57
2021/03/09 12:21:50;;;;;;;0.73;0.73;;;;;;;5.88;49.32;96841.69;299422;229;63009;-57
2021/03/09 12:26:51;;;;;;;0.70;0.70;;;;;;;5.87;50.28;96834.69;299395;196;63005;-58
2021/03/09 12:31:59;;;;;;;0.70;0.70;;;;;;;5.89;50.17;96830.66;299395;319;63009;-56
2021/03/09 12:37:01;;;;;;;0.70;0.70;;;;;;;6.11;49.22;96819.69;299395;227;63004;-53
2021/03/09 12:42:02;;;;;;;0.70;0.70;;;;;;;6.25;48.24;96799.22;299395;237;63009;-52
2021/03/09 12:47:06;;;;;;;0.70;0.70;;;;;;;5.95;48.47;96799.97;299395;252;63005;-56
2021/03/09 12:52:09;;;;;;;0.70;0.70;;;;;;;5.85;48.47;96799.13;299395;259;63008;-53
2021/03/09 12:57:12;;;;;;;0.70;0.70;;;;;;;5.87;49.04;96797.78;299395;216;63004;-54
2021/03/09 13:02:14;;;;;;;0.70;0.70;;;;;;;5.95;48.04;96788.38;299395;264;63009;-58
2021/03/09 13:07:20;;;;;;;0.70;0.70;;;;;;;5.72;49.03;96795.03;299395;276;63004;-58
2021/03/09 13:12:22;;;;;;;0.70;0.70;;;;;;;5.82;48.25;96778.91;299395;196;63009;-54
2021/03/09 13:17:28;;;;;;;0.70;0.70;;;;;;;5.85;47.71;96783.78;299395;319;63005;-59
2021/03/09 13:22:30;;;;;;;0.70;0.70;;;;;;;5.69;49.01;96800.94;299417;233;63008;-59
2021/03/09 13:27:34;;;;;;;0.60;0.60;;;;;;;5.75;48.06;96791.81;299395;303;63004;-57
2021/03/09 13:32:36;;;;;;;0.70;0.70;;;;;;;5.72;48.38;96789.66;299417;265;63009;-60
2021/03/09 13:37:40;;;;;;;0.60;0.60;;;;;;;5.93;47.28;96780.56;299373;248;63004;-57
2021/03/09 13:42:45;;;;;;;0.70;0.70;;;;;;;5.90;47.58;96786.50;299417;309;63009;-57
2021/03/09 13:47:57;;;;;;;0.70;0.70;;;;;;;5.88;46.78;96782.44;299395;332;63005;-57
2021/03/09 13:52:59;;;;;;;0.70;0.70;;;;;;;5.95;47.97;96789.19;299395;209;63009;-57
2021/03/09 13:58:01;;;;;;;0.70;0.70;;;;;;;6.19;47.32;96788.72;299395;245;63004;-57
2021/03/09 14:03:07;;;;;;;0.70;0.70;;;;;;;6.29;46.97;96783.31;299395;202;63009;-58
2021/03/09 14:08:13;;;;;;;6.30;5.90;;;;;;;5.88;48.25;96787.81;299396;273;63005;-52
2021/03/09 14:13:15;;;;;;;0.70;0.70;;;;;;;5.98;48.61;96788.66;299396;269;63009;-57
2021/03/09 14:18:19;;;;;;;0.70;0.70;;;;;;;5.96;48.63;96787.31;299396;308;63005;-54
2021/03/09 14:23:21;;;;;;;0.70;0.70;;;;;;;6.06;48.99;96795.44;299396;203;63009;-53
2021/03/09 14:28:23;;;;;;;0.60;0.60;;;;;;;6.51;47.88;96789.28;299396;243;63004;-53
2021/03/09 14:33:28;;;;;;;0.60;0.60;;;;;;;6.76;47.29;96788.47;299396;203;63009;-56
2021/03/09 14:38:34;;;;;;;1.55;1.55;;;;;;;6.30;49.79;96803.81;299396;202;63005;-60
2021/03/09 14:43:35;;;;;;;0.70;0.70;;;;;;;6.35;48.55;96793.03;299396;340;63009;-55
2021/03/09 14:48:37;;;;;;;0.60;0.60;;;;;;;6.09;49.65;96802.16;299396;251;63005;-51
2021/03/09 14:53:38;;;;;;;0.70;0.70;;;;;;;6.03;50.47;96812.94;299397;263;63009;-53
2021/03/09 14:58:42;;;;;;;0.60;0.60;;;;;;;6.01;50.20;96820.47;299397;218;63004;-58
2021/03/09 15:03:47;;;;;;;0.60;0.60;;;;;;;5.68;50.61;96815.47;299418;256;63009;-58
2021/03/09 15:08:48;;;;;;;0.70;0.70;;;;;;;5.79;50.08;96805.56;299418;289;63005;-54
2021/03/09 15:13:50;;;;;;;0.60;0.60;;;;;;;5.92;49.95;96808.56;299396;335;63008;-53
2021/03/09 15:18:52;;;;;;;1.30;1.30;;;;;;;5.89;49.91;96806.41;299396;197;63004;-59
2021/03/09 15:23:54;;;;;;;0.80;0.80;;;;;;;5.90;49.49;96797.25;299396;301;63009;-63
2021/03/09 15:29:05;;;;;;;0.70;0.70;;;;;;;5.76;49.62;96806.09;299396;218;63004;-58
2021/03/09 15:34:06;;;;;;;0.70;0.70;;;;;;;5.50;51.10;96810.56;299396;272;63009;-53
2021/03/09 15:39:10;;;;;;;0.70;0.70;;;;;;;5.23;51.34;96818.75;299396;361;63005;-52
2021/03/09 15:44:11;;;;;;;0.70;0.70;;;;;;;5.35;51.17;96812.09;299439;334;64013;-58
2021/03/09 15:49:15;;;;;;;0.80;0.80;;;;;;;5.50;50.23;96807.87;299397;285;63004;-58
2021/03/09 15:54:16;;;;;;;0.70;0.70;;;;;;;5.40;50.60;96814.00;299395;204;63009;-58
2021/03/09 15:59:19;;;;;;;0.70;0.70;;;;;;;5.31;50.62;96811.00;299395;249;63001;-60
2021/03/09 16:04:23;;;;;;;0.95;0.95;;;;;;;5.32;51.20;96827.94;299395;221;63009;-61
2021/03/09 16:09:27;;;;;;;0.75;0.75;;;;;;;5.20;51.67;96828.13;299417;209;63005;-61
2021/03/09 16:14:29;;;;;;;0.80;0.80;;;;;;;5.02;52.47;96828.56;299395;250;63009;-60
2021/03/09 16:19:31;;;;;;;0.70;0.70;;;;;;;4.83;53.19;96838.13;299395;251;63004;-57
2021/03/09 16:24:36;;;;;;;0.70;0.70;;;;;;;4.63;54.56;96836.88;299395;206;63009;-58
2021/03/09 16:29:40;;;;;;;;;;;;;;;4.86;53.40;96845.66;299996;983;6000;-59
2021/03/09 16:34:41;;;;;;;0.70;0.70;;;;;;;4.67;54.89;96848.75;299400;225;63004;-57
2021/03/09 16:39:44;;;;;;;0.70;0.70;;;;;;;4.77;53.79;96836.47;299395;207;63009;-58
2021/03/09 16:44:48;;;;;;;0.70;0.70;;;;;;;4.83;53.64;96846.19;299395;230;63005;-57
2021/03/09 16:49:49;;;;;;;0.70;0.70;;;;;;;4.62;54.25;96848.69;299417;205;63009;-56
2021/03/09 16:54:52;;;;;;;0.70;0.70;;;;;;;4.68;54.33;96845.00;299395;245;63005;-55
2021/03/09 16:59:53;;;;;;;0.70;0.70;;;;;;;4.66;54.42;96857.88;299395;207;63009;-55
2021/03/09 17:04:56;;;;;;;0.70;0.70;;;;;;;4.54;54.83;96867.16;299395;237;63004;-56
2021/03/09 17:09:58;;;;;;;0.70;0.70;;;;;;;4.60;54.68;96872.34;299395;225;63009;-55
2021/03/09 17:14:59;;;;;;;0.70;0.70;;;;;;;4.45;55.26;96882.94;299395;198;63005;-55
2021/03/09 17:20:00;;;;;;;0.70;0.70;;;;;;;4.41;55.53;96892.59;299395;249;63009;-57
2021/03/09 17:25:01;;;;;;;0.70;0.70;;;;;;;4.49;55.28;96894.81;299395;254;63005;-57
2021/03/09 17:30:04;;;;;;;0.70;0.70;;;;;;;4.51;55.08;96898.03;299395;199;63009;-54
2021/03/09 17:35:08;;;;;;;0.70;0.70;;;;;;;4.47;55.08;96902.31;299395;261;63004;-56
2021/03/09 17:40:10;;;;;;;0.70;0.70;;;;;;;4.35;55.70;96904.34;299395;220;63009;-56
2021/03/09 17:45:13;;;;;;;0.70;0.70;;;;;;;4.35;55.77;96910.53;299395;209;63005;-57
2021/03/09 17:50:14;;;;;;;0.70;0.70;;;;;;;4.36;54.51;96903.28;299395;266;63008;-56
2021/03/09 17:55:15;;;;;;;0.70;0.70;;;;;;;4.40;54.49;96917.81;299395;213;63004;-56
2021/03/09 18:00:17;;;;;;;0.70;0.70;;;;;;;4.48;53.70;96909.31;299395;211;63021;-55
2021/03/09 18:05:18;;;;;;;0.70;0.70;;;;;;;4.55;52.51;96909.09;299395;227;63004;-54
2021/03/09 18:10:30;;;;;;;0.70;0.70;;;;;;;4.46;52.77;96922.19;299395;229;63009;-53
2021/03/09 18:15:31;;;;;;;0.70;0.70;;;;;;;4.54;52.30;96919.03;299395;206;63005;-54
2021/03/09 18:20:35;;;;;;;0.70;0.70;;;;;;;4.35;52.80;96926.62;299395;204;63020;-53
2021/03/09 18:25:36;;;;;;;0.77;0.77;;;;;;;4.17;54.46;96945.75;299395;219;63004;-53
2021/03/09 18:30:38;;;;;;;0.70;0.70;;;;;;;4.11;54.46;96956.72;299395;199;63009;-55
2021/03/09 18:35:39;;;;;;;0.60;0.60;;;;;;;4.36;52.98;96954.31;299395;201;63005;-57
2021/03/09 18:40:41;;;;;;;0.70;0.70;;;;;;;4.29;53.22;96957.19;299395;214;63009;-55
2021/03/09 18:45:45;;;;;;;0.70;0.70;;;;;;;4.34;53.41;96956.44;299395;196;63005;-58
2021/03/09 18:50:47;;;;;;;0.70;0.70;;;;;;;4.25;54.44;96974.06;299417;210;63009;-55
2021/03/09 18:55:49;;;;;;;0.70;0.70;;;;;;;4.22;55.28;96971.84;299395;244;63004;-57
2021/03/09 19:00:51;;;;;;;0.80;0.80;;;;;;;4.36;55.95;96975.81;299395;213;63009;-56
2021/03/09 19:05:51;;;;;;;0.70;0.70;;;;;;;4.23;56.27;96981.53;299395;241;63005;-54
2021/03/09 19:10:53;;;;;;;0.85;0.85;;;;;;;4.13;56.97;96986.81;299395;260;63009;-55
2021/03/09 19:15:57;;;;;;;0.70;0.70;;;;;;;4.10;57.52;96990.81;299395;238;63005;-52
2021/03/09 19:20:58;;;;;;;0.70;0.70;;;;;;;4.10;58.10;97006.91;299417;214;63009;-58
2021/03/09 19:26:00;;;;;;;0.70;0.70;;;;;;;3.89;60.44;97018.41;299395;219;63004;-57
2021/03/09 19:31:01;;;;;;;0.70;0.70;;;;;;;3.83;61.90;97020.22;299395;226;63009;-57
2021/03/09 19:36:09;;;;;;;0.70;0.70;;;;;;;3.73;63.09;97020.09;299395;217;63005;-55
2021/03/09 19:41:13;;;;;;;0.70;0.70;;;;;;;3.68;63.31;97014.63;299395;206;63009;-52
2021/03/09 19:46:14;;;;;;;0.70;0.70;;;;;;;3.56;64.14;97008.53;299395;206;63005;-55
2021/03/09 19:51:15;;;;;;;0.70;0.70;;;;;;;3.35;64.91;97004.75;299395;255;63009;-55
2021/03/09 19:56:19;;;;;;;0.70;0.70;;;;;;;3.33;65.67;97010.34;299395;196;63004;-55
2021/03/09 20:01:24;;;;;;;0.70;0.70;;;;;;;3.39;64.67;97013.13;299417;279;63019;-56
2021/03/09 20:06:25;;;;;;;0.70;0.70;;;;;;;3.46;65.08;97019.94;299417;226;63005;-56
2021/03/09 20:11:25;;;;;;;0.70;0.70;;;;;;;3.41;64.69;97027.09;299395;215;63008;-55
2021/03/09 20:16:28;;;;;;;0.70;0.70;;;;;;;3.41;65.64;97021.72;299395;203;63004;-55
2021/03/09 20:21:29;;;;;;;0.60;0.60;;;;;;;3.25;67.47;97034.88;299395;248;63009;-54
2021/03/09 20:26:32;;;;;;;0.70;0.70;;;;;;;3.41;66.58;97037.81;299395;202;63004;-58
2021/03/09 20:31:39;;;;;;;0.70;0.70;;;;;;;3.24;68.18;97033.25;299395;228;63009;-55
2021/03/09 20:36:40;;;;;;;0.70;0.70;;;;;;;3.14;67.99;97027.72;299395;204;63005;-53
2021/03/09 20:41:41;;;;;;;0.70;0.70;;;;;;;3.12;68.38;97035.19;299395;218;63008;-56
2021/03/09 20:46:42;;;;;;;0.70;0.70;;;;;;;3.02;68.93;97025.12;299395;212;63004;-55
2021/03/09 20:51:43;;;;;;;0.70;0.70;;;;;;;3.09;68.92;97027.66;299395;204;63009;-55
2021/03/09 20:56:47;;;;;;;0.70;0.70;;;;;;;3.06;68.47;97027.31;299395;220;63004;-57
2021/03/09 21:01:48;;;;;;;0.70;0.70;;;;;;;3.14;68.34;97025.03;299377;248;125009;-55
2021/03/09 21:06:48;;;;;;;0.70;0.70;;;;;;;3.08;68.87;97023.34;299395;208;63010;-55
2021/03/09 21:11:50;;;;;;;0.70;0.70;;;;;;;3.08;69.03;97028.72;299395;215;63009;-52
2021/03/09 21:16:53;;;;;;;0.70;0.70;;;;;;;3.15;68.73;97023.97;299395;249;63004;-56
2021/03/09 21:21:54;;;;;;;0.70;0.70;;;;;;;3.13;68.49;97015.34;299395;196;63009;-55
2021/03/09 21:26:55;;;;;;;0.70;0.70;;;;;;;3.14;68.69;97022.34;299395;209;63005;-56
2021/03/09 21:31:56;;;;;;;0.70;0.70;;;;;;;3.12;69.05;97024.47;299395;224;63009;-56
2021/03/09 21:37:00;;;;;;;0.70;0.70;;;;;;;3.05;68.89;97021.16;299395;211;63005;-52
2021/03/09 21:42:01;;;;;;;0.70;0.70;;;;;;;3.13;68.96;97009.19;299417;214;63009;-52
2021/03/09 21:47:03;;;;;;;0.70;0.70;;;;;;;3.08;68.67;97012.63;299395;212;63008;-56
2021/03/09 21:52:04;;;;;;;0.70;0.70;;;;;;;3.06;68.83;97014.72;299395;204;63029;-57
2021/03/09 21:57:06;;;;;;;0.70;0.70;;;;;;;3.07;68.96;97012.87;299395;249;63005;-56
2021/03/09 22:02:08;;;;;;;0.70;0.70;;;;;;;3.15;68.17;97013.25;299395;243;63009;-57
2021/03/09 22:07:10;;;;;;;0.70;0.70;;;;;;;3.10;68.70;97010.50;299395;242;63005;-57
2021/03/09 22:12:15;;;;;;;0.70;0.70;;;;;;;3.20;68.22;96999.13;299395;224;63009;-52
2021/03/09 22:17:16;;;;;;;0.70;0.70;;;;;;;3.24;67.81;97000.25;299395;240;63004;-56
2021/03/09 22:22:17;;;;;;;0.70;0.70;;;;;;;3.08;68.83;97001.91;299395;214;63009;-53
2021/03/09 22:27:19;;;;;;;0.70;0.70;;;;;;;3.04;69.05;97006.13;299395;197;63005;-54
2021/03/09 22:32:21;;;;;;;0.70;0.70;;;;;;;3.03;69.36;97009.84;299395;198;63009;-54
2021/03/09 22:37:22;;;;;;;0.70;0.70;;;;;;;2.99;69.51;97009.50;299395;212;63005;-54
2021/03/09 22:42:23;;;;;;;0.70;0.70;;;;;;;3.12;69.47;97013.72;299395;225;63009;-53
2021/03/09 22:47:24;;;;;;;0.70;0.70;;;;;;;3.17;69.36;97016.50;299395;202;63004;-54
2021/03/09 22:52:25;;;;;;;0.70;0.70;;;;;;;2.97;70.04;97005.44;299395;234;63009;-54
2021/03/09 22:57:26;;;;;;;0.70;0.70;;;;;;;2.94;70.80;96995.22;299395;197;63005;-53
2021/03/09 23:02:27;;;;;;;0.70;0.70;;;;;;;2.96;71.29;97001.94;299395;204;63008;-54
2021/03/09 23:07:28;;;;;;;0.70;0.70;;;;;;;2.94;71.93;97005.94;299395;196;63004;-55
2021/03/09 23:12:29;;;;;;;0.70;0.70;;;;;;;2.98;71.52;97001.72;299395;305;63009;-54
2021/03/09 23:17:29;;;;;;;0.70;0.70;;;;;;;2.85;71.86;97007.38;299395;220;63004;-54
2021/03/09 23:22:30;;;;;;;0.70;0.70;;;;;;;2.87;72.34;97006.06;299395;231;63009;-54
2021/03/09 23:27:32;;;;;;;0.70;0.70;;;;;;;2.86;72.56;97004.44;299395;250;63005;-54
2021/03/09 23:32:33;;;;;;;0.70;0.70;;;;;;;2.81;73.05;97000.84;299395;215;63009;-55
2021/03/09 23:37:34;;;;;;;0.70;0.70;;;;;;;2.87;72.82;96998.03;299394;246;64004;-55
2021/03/09 23:42:37;;;;;;;0.70;0.70;;;;;;;2.84;72.93;96993.16;299395;279;63018;-55
2021/03/09 23:47:39;;;;;;;0.70;0.70;;;;;;;2.76;73.23;96993.56;299395;202;63004;-55
2021/03/09 23:52:41;;;;;;;0.70;0.70;;;;;;;2.74;73.60;96990.31;299395;211;63009;-55
2021/03/09 23:57:42;;;;;;;0.70;0.70;;;;;;;2.75;73.73;96993.81;299395;280;63005;-54
